Time;durP1;ratioP1;P1;durP2;ratioP2;P2;SDS_P1;SDS_P2;PMS_P1;PMS_P2;Temp;Humidity;BMP_temperature;BMP_pressure;BME280_temperature;BME280_humidity;BME280_pressure;Samples;Min_cycle;Max_cycle;Signal;HPM_P1;HPM_P2
2021/12/07 00:00:26;;;;;;;4.53;1.25;;;;;;;;;;4993978;28;20178;-73
2021/12/07 00:02:52;;;;;;;12.30;1.67;;;;;;;;;;4993424;28;20180;-74
2021/12/07 00:05:19;;;;;;;5.75;1.30;;;;;;;;;;4993759;28;20202;-74
2021/12/07 00:07:45;;;;;;;10.18;2.08;;;;;;;;;;4994104;28;20173;-74
2021/12/07 00:10:14;;;;;;;15.05;2.45;;;;;;;;;;4993689;28;20180;-76
2021/12/07 00:12:43;;;;;;;8.10;1.60;;;;;;;;;;4994031;28;20221;-76
2021/12/07 00:15:11;;;;;;;2.08;0.77;;;;;;;;;;4974827;28;20159;-76
2021/12/07 00:17:44;;;;;;;3.78;1.30;;;;;;;;;;4987927;28;20169;-76
2021/12/07 00:20:15;;;;;;;8.43;1.45;;;;;;;;;;4980540;28;20200;-76
2021/12/07 00:22:45;;;;;;;9.60;2.00;;;;;;;;;;4994085;28;20204;-76
2021/12/07 00:25:12;;;;;;;2.25;0.90;;;;;;;;;;4994447;28;20652;-76
2021/12/07 00:27:38;;;;;;;7.43;2.42;;;;;;;;;;4994130;28;20166;-76
2021/12/07 00:30:06;;;;;;;13.32;2.28;;;;;;;;;;4993283;28;20188;-76
2021/12/07 00:32:43;;;;;;;3.78;1.05;;;;;;;;;;4993975;28;20182;-76
2021/12/07 00:37:57;;;;;;;7.97;1.60;;;;;;;;;;4994347;28;20227;-76
2021/12/07 00:40:25;;;;;;;10.43;2.05;;;;;;;;;;4994089;28;20236;-74
2021/12/07 00:42:51;;;;;;;8.05;1.85;;;;;;;;;;4993788;28;20641;-74
2021/12/07 00:45:20;;;;;;;9.85;2.25;;;;;;;;;;4991409;28;20213;-74
2021/12/07 00:47:47;;;;;;;6.72;1.80;;;;;;;;;;4991674;28;20181;-74
2021/12/07 00:50:13;;;;;;;8.38;1.60;;;;;;;;;;4993770;28;20619;-74
2021/12/07 00:52:39;;;;;;;17.05;3.15;;;;;;;;;;4997037;28;20617;-74
2021/12/07 00:55:08;;;;;;;7.13;1.38;;;;;;;;;;4997237;28;20197;-74
2021/12/07 00:57:35;;;;;;;8.18;1.80;;;;;;;;;;4997648;28;20188;-74
2021/12/07 01:00:01;;;;;;;3.42;1.35;;;;;;;;;;4997356;28;20228;-74
2021/12/07 01:02:28;;;;;;;8.88;2.25;;;;;;;;;;4996390;28;20265;-74
2021/12/07 01:05:03;;;;;;;4.70;1.80;;;;;;;;;;4997027;28;20676;-74
2021/12/07 01:07:47;;;;;;;8.20;2.15;;;;;;;;;;4997312;28;20256;-74
2021/12/07 01:26:46;;;;;;;8.02;2.30;;;;;;;;;;4997068;28;20227;-74
2021/12/07 01:29:12;;;;;;;7.15;1.95;;;;;;;;;;4996890;28;20185;-74
2021/12/07 01:31:53;;;;;;;8.55;1.85;;;;;;;;;;4996505;28;20178;-74
2021/12/07 01:50:26;;;;;;;13.52;2.47;;;;;;;;;;4975286;28;20269;-74
2021/12/07 01:53:04;;;;;;;11.70;2.05;;;;;;;;;;4978002;28;20436;-73
2021/12/07 02:01:05;;;;;;;5.15;2.30;;;;;;;;;;4963870;28;20179;-76
2021/12/07 02:03:32;;;;;;;7.65;2.53;;;;;;;;;;4959560;28;20603;-76
2021/12/07 02:06:02;;;;;;;8.43;3.10;;;;;;;;;;4975003;28;20162;-77
2021/12/07 02:08:38;;;;;;;8.35;2.88;;;;;;;;;;4961874;28;20713;-76
2021/12/07 02:11:04;;;;;;;3.25;1.60;;;;;;;;;;4962197;28;20287;-74
2021/12/07 02:16:02;;;;;;;13.23;4.07;;;;;;;;;;4954615;29;20187;-74
2021/12/07 02:18:28;;;;;;;14.98;3.50;;;;;;;;;;4957425;28;20528;-74
2021/12/07 02:20:54;;;;;;;15.13;4.00;;;;;;;;;;4955263;28;20675;-74
2021/12/07 02:23:20;;;;;;;21.95;4.53;;;;;;;;;;4972043;28;20602;-74
2021/12/07 02:25:46;;;;;;;12.57;3.58;;;;;;;;;;4954596;29;20209;-74
2021/12/07 02:28:14;;;;;;;12.13;3.35;;;;;;;;;;4956597;28;20230;-74
2021/12/07 02:30:42;;;;;;;8.63;2.78;;;;;;;;;;4995389;28;20526;-74
2021/12/07 02:33:09;;;;;;;6.50;2.08;;;;;;;;;;4995690;28;20189;-74
2021/12/07 02:35:37;;;;;;;9.95;2.67;;;;;;;;;;4995198;28;20178;-74
2021/12/07 02:38:03;;;;;;;3.88;1.83;;;;;;;;;;4995745;28;20275;-74
2021/12/07 02:40:30;;;;;;;18.13;3.05;;;;;;;;;;4995253;28;20591;-74
2021/12/07 02:42:56;;;;;;;3.72;1.42;;;;;;;;;;4995965;28;20178;-74
2021/12/07 02:45:22;;;;;;;11.20;2.03;;;;;;;;;;4994857;28;20601;-74
2021/12/07 02:47:49;;;;;;;10.40;2.17;;;;;;;;;;4995138;28;20649;-74
2021/12/07 02:50:16;;;;;;;9.75;1.42;;;;;;;;;;4995336;28;20185;-74
2021/12/07 02:52:42;;;;;;;13.18;2.35;;;;;;;;;;4994411;28;20183;-74
2021/12/07 02:55:09;;;;;;;7.20;1.80;;;;;;;;;;4997515;28;20586;-74
2021/12/07 02:57:36;;;;;;;9.95;2.22;;;;;;;;;;4995315;28;20209;-74
2021/12/07 03:00:10;;;;;;;11.57;2.42;;;;;;;;;;4995253;28;20184;-74
2021/12/07 03:02:44;;;;;;;8.00;1.92;;;;;;;;;;4994525;28;20268;-74
2021/12/07 03:05:26;;;;;;;7.95;2.05;;;;;;;;;;4994811;28;20197;-74
2021/12/07 03:27:13;;;;;;;3.30;1.17;;;;;;;;;;4986863;28;20680;-76
2021/12/07 03:29:55;;;;;;;3.92;1.42;;;;;;;;;;4995016;28;20526;-77
2021/12/07 03:32:32;;;;;;;5.43;1.63;;;;;;;;;;4994573;28;20193;-76
2021/12/07 03:35:02;;;;;;;28.40;3.58;;;;;;;;;;4994575;28;20223;-76
2021/12/07 03:37:32;;;;;;;8.48;1.80;;;;;;;;;;4994682;28;20185;-76
2021/12/07 03:40:19;;;;;;;4.50;1.42;;;4.10;1.00;;;;;;4994710;28;20178;-76
2021/12/07 03:42:56;;;;;;;8.35;1.95;;;;;;;;;;4989151;28;20189;-75
2021/12/07 03:45:22;;;;;;;9.18;1.83;;;;;;;;;;4989884;28;20209;-74
2021/12/07 03:47:50;;;;;;;8.60;2.20;;;;;;;;;;4994021;28;20209;-74
2021/12/07 03:50:16;;;;;;;4.32;0.90;;;;;;;;;;4994080;28;20633;-74
2021/12/07 03:52:42;;;;;;;5.90;1.42;;;;;;;;;;4993791;28;20184;-74
2021/12/07 03:55:08;;;;;;;15.85;2.50;;;;;;;;;;4996467;28;20650;-74
2021/12/07 03:57:35;;;;;;;3.45;1.45;;;;;;;;;;4994433;28;20253;-74
2021/12/07 04:00:01;;;;;;;7.10;1.67;;;;;;;;;;4993875;28;20174;-74
2021/12/07 04:02:28;;;;;;;5.80;1.73;;;;;;;;;;4993838;28;20236;-74
2021/12/07 04:05:00;;;;;;;6.40;1.25;;;;;;;;;;4994050;28;20251;-74
2021/12/07 04:07:26;;;;;;;5.10;1.88;;;;;;;;;;4993962;28;20625;-74
2021/12/07 04:09:53;;;;;;;4.13;0.95;;;;;;;;;;4993881;28;20196;-75
2021/12/07 04:12:19;;;;;;;11.30;1.20;;;;;;;;;;4994117;28;20534;-74
2021/12/07 04:14:45;;;;;;;8.70;1.92;;;;;;;;;;4993789;28;20656;-74
2021/12/07 04:17:11;;;;;;;3.17;0.80;;;;;;;;;;4993283;28;20649;-74
2021/12/07 04:19:37;;;;;;;9.55;1.33;;;;;;;;;;4994025;28;20181;-74
2021/12/07 04:22:03;;;;;;;24.75;2.05;;;;;;;;;;4993696;28;20184;-74
2021/12/07 04:24:30;;;;;;;22.50;2.63;;;;;;;;;;4993632;28;20747;-74
2021/12/07 04:27:02;;;;;;;3.42;1.05;;;;;;;;;;4993712;28;20174;-74
2021/12/07 04:29:28;;;;;;;7.57;1.75;;;;;;;;;;4993527;28;20201;-74
2021/12/07 04:31:54;;;;;;;5.30;1.25;;;;;;;;;;4993423;28;20252;-74
2021/12/07 04:34:20;;;;;;;8.53;1.60;;;;;;;;;;4993731;28;20240;-74
2021/12/07 04:36:46;;;;;;;2.25;1.13;;;;;;;;;;4993373;28;20907;-74
2021/12/07 04:39:13;;;;;;;11.32;1.80;;;;;;;;;;4993735;28;20204;-74
2021/12/07 04:41:42;;;;;;;6.23;1.17;;;;;;;;;;4993152;28;20196;-74
2021/12/07 04:45:05;;;;;;;13.15;1.00;;;4.60;1.00;;;;;;4994023;28;20479;-76
2021/12/07 04:47:52;;;;;;;4.47;1.20;;;;;;;;;;4983754;28;20170;-76
2021/12/07 04:58:42;;;;;;;22.53;2.77;;;;;;;;;;4993530;28;20656;-76
2021/12/07 05:01:20;;;;;;;6.47;1.83;;;;;;;;;;4993832;28;20433;-76
2021/12/07 05:03:52;;;;;;;1.88;0.80;;;;;;;;;;4993608;28;20609;-76
2021/12/07 05:06:34;;;;;;;6.75;1.25;;;;;;;;;;4993775;28;20158;-76
2021/12/07 05:09:22;;;;;;;3.70;0.82;;;;;;;;;;4983372;28;20174;-76
2021/12/07 05:12:03;;;;;;;10.40;1.23;;;;;;;;;;4992981;28;20174;-76
2021/12/07 05:14:33;;;;;;;11.25;1.98;;;;;;;;;;4993925;28;20504;-74
2021/12/07 05:39:16;;;;;;;3.90;0.88;;;;;;;;;;4996287;28;20233;-76
2021/12/07 05:41:44;;;;;;;9.90;2.13;;;;;;;;;;4996911;28;20173;-76
2021/12/07 05:44:10;;;;;;;7.10;1.23;;;;;;;;;;4996989;28;20460;-74
2021/12/07 05:46:36;;;;;;;11.77;1.77;;;;;;;;;;4996290;28;20766;-74
2021/12/07 05:49:08;;;;;;;5.40;1.13;;;;;;;;;;4995410;28;20819;-74
2021/12/07 05:51:34;;;;;;;4.27;1.07;;;;;;;;;;4996370;28;20470;-74
2021/12/07 05:54:00;;;;;;;11.55;2.05;;;;;;;;;;4983413;28;20504;-75
2021/12/07 05:56:26;;;;;;;140.87;10.97;;;;;;;;;;4976802;28;20284;-74
2021/12/07 05:58:56;;;;;;;13.95;2.03;;;;;;;;;;4991442;28;20443;-77
2021/12/07 06:01:26;;;;;;;7.53;1.42;;;;;;;;;;4995800;28;20188;-76
2021/12/07 06:03:52;;;;;;;6.43;1.90;;;;;;;;;;4990979;28;20200;-76
2021/12/07 06:06:18;;;;;;;9.77;1.45;;;;;;;;;;4996489;28;20173;-76
2021/12/07 06:08:50;;;;;;;5.25;1.63;;;;;;;;;;4996051;28;20173;-77
2021/12/07 06:11:18;;;;;;;8.40;1.45;;;;;;;;;;4996498;28;20200;-76
2021/12/07 06:13:50;;;;;;;2.45;0.70;;;;;;;;;;4996381;28;20177;-76
2021/12/07 06:16:20;;;;;;;7.70;1.40;;;;;;;;;;4988300;28;20584;-76
2021/12/07 06:18:50;;;;;;;14.27;2.50;;;;;;;;;;4994961;28;20173;-76
2021/12/07 06:21:20;;;;;;;2.20;1.20;;;;;;;;;;4996084;28;20462;-78
2021/12/07 06:24:25;;;;;;;12.00;1.33;;;4.80;1.00;;;;;;4989109;28;20416;-76
2021/12/07 06:26:51;;;;;;;3.25;1.17;;;;;;;;;;4995845;28;20435;-77
2021/12/07 06:29:32;;;;;;;7.30;1.20;;;;;;;;;;4996176;28;20173;-78
2021/12/07 06:32:02;;;;;;;7.20;1.58;;;;;;;;;;4995845;28;20417;-76
2021/12/07 06:34:44;;;;;;;10.53;1.90;;;;;;;;;;4995660;28;20657;-76
2021/12/07 06:37:26;;;;;;;21.33;1.65;;;;;;;;;;4994377;28;20937;-77
2021/12/07 06:39:56;;;;;;;8.03;1.27;;;;;;;;;;4989419;28;20177;-77
2021/12/07 06:42:22;;;;;;;6.17;1.20;;;;;;;;;;4994320;28;20832;-76
2021/12/07 06:45:08;;;;;;;8.50;1.70;;;4.90;1.00;;;;;;4995708;28;20487;-76
2021/12/07 06:47:34;;;;;;;4.90;1.10;;;;;;;;;;4993413;28;20193;-76
2021/12/07 06:50:09;;;;;;;11.57;2.13;;;;;;;;;;4994988;28;20419;-77
2021/12/07 06:52:51;;;;;;;10.43;2.75;;;;;;;;;;4995461;28;20185;-78
2021/12/07 06:55:20;;;;;;;16.90;2.45;;;;;;;;;;4997526;28;20349;-76
2021/12/07 06:57:56;;;;;;;15.47;2.20;;;;;;;;;;4994129;28;20182;-76
2021/12/07 07:00:26;;;;;;;6.50;1.43;;;;;;;;;;4994652;28;20424;-76
2021/12/07 07:02:52;;;;;;;5.23;1.03;;;;;;;;;;4987382;28;20455;-76
2021/12/07 07:05:20;;;;;;;5.43;1.03;;;;;;;;;;4994857;28;20966;-76
2021/12/07 07:08:02;;;;;;;11.37;2.17;;;;;;;;;;4993100;28;20767;-76
2021/12/07 07:10:32;;;;;;;6.50;1.90;;;;;;;;;;4992459;28;20455;-76
2021/12/07 07:13:08;;;;;;;22.90;3.17;;;;;;;;;;4994898;28;20420;-76
2021/12/07 07:15:35;;;;;;;5.47;1.07;;;;;;;;;;4993098;28;20428;-74
2021/12/07 07:18:01;;;;;;;5.17;1.17;;;;;;;;;;4994865;28;20491;-74
2021/12/07 07:20:28;;;;;;;9.93;1.63;;;;;;;;;;4994681;28;20420;-74
2021/12/07 07:22:54;;;;;;;7.65;1.33;;;;;;;;;;4993526;28;20828;-74
2021/12/07 07:25:21;;;;;;;20.63;1.85;;;;;;;;;;4994699;28;20201;-74
2021/12/07 07:27:50;;;;;;;238.20;18.10;;;;;;;;;;4987342;28;20653;-74
2021/12/07 07:30:17;;;;;;;3.33;1.10;;;;;;;;;;4993144;28;20420;-74
2021/12/07 07:32:45;;;;;;;9.38;1.23;;;;;;;;;;4993581;28;20455;-74
2021/12/07 07:35:11;;;;;;;6.68;1.27;;;;;;;;;;4993639;28;20235;-77
2021/12/07 07:37:38;;;;;;;10.70;1.50;;;;;;;;;;4992884;28;20178;-74
2021/12/07 07:40:08;;;;;;;8.23;1.43;;;;;;;;;;4989317;28;20933;-74
2021/12/07 07:42:34;;;;;;;15.13;1.77;;;;;;;;;;4989151;28;20511;-74
2021/12/07 07:45:00;;;;;;;13.20;1.83;;;;;;;;;;4992124;28;20457;-74
2021/12/07 07:47:27;;;;;;;10.13;1.13;;;;;;;;;;4992508;28;20432;-74
2021/12/07 07:49:53;;;;;;;5.70;1.50;;;;;;;;;;4993575;28;20417;-74
2021/12/07 07:52:19;;;;;;;9.37;1.77;;;;;;;;;;4993476;28;20939;-74
2021/12/07 07:54:45;;;;;;;464.35;43.72;;;;;;;;;;4985781;28;20448;-74
2021/12/07 07:57:11;;;;;;;5.80;1.20;;;;;;;;;;4990829;28;20184;-74
2021/12/07 07:59:39;;;;;;;7.80;1.57;;;;;;;;;;4990884;28;20416;-74
2021/12/07 08:02:06;;;;;;;26.00;4.00;;;;;;;;;;4985022;28;20475;-74
2021/12/07 08:04:32;;;;;;;11.90;2.33;;;;;;;;;;4992163;28;20914;-74
2021/12/07 08:06:58;;;;;;;5.50;1.47;;;;;;;;;;4993522;28;20420;-74
2021/12/07 08:09:24;;;;;;;4.37;1.13;;;;;;;;;;4989637;28;20421;-74
2021/12/07 08:11:50;;;;;;;7.80;1.67;;;;;;;;;;4993196;28;20432;-74
2021/12/07 08:14:17;;;;;;;3.70;1.00;;;;;;;;;;4993868;28;20463;-75
2021/12/07 08:16:43;;;;;;;30.80;4.05;;;;;;;;;;4985014;28;20513;-74
2021/12/07 08:19:09;;;;;;;30.25;3.78;;;;;;;;;;4991885;28;20536;-74
2021/12/07 08:21:35;;;;;;;6.33;1.23;;;;;;;;;;4992945;28;20181;-74
2021/12/07 08:24:01;;;;;;;5.10;1.20;;;;;;;;;;4989955;28;20511;-74
2021/12/07 08:26:28;;;;;;;131.73;11.20;;;;;;;;;;4993575;28;20413;-74
2021/12/07 08:28:55;;;;;;;4.10;1.20;;;;;;;;;;4999486;28;20816;-74
2021/12/07 08:31:21;;;;;;;5.07;1.30;;;;;;;;;;4993584;28;20181;-76
2021/12/07 08:33:48;;;;;;;5.70;1.03;;;;;;;;;;4993340;28;20459;-76
2021/12/07 08:36:14;;;;;;;4.18;1.15;;;;;;;;;;4992993;28;20428;-76
2021/12/07 08:38:40;;;;;;;15.98;2.90;;;;;;;;;;4992984;28;20513;-76
2021/12/07 08:41:06;;;;;;;16.03;2.03;;;;;;;;;;4992851;28;20650;-76
2021/12/07 08:43:33;;;;;;;7.80;1.63;;;;;;;;;;4992948;28;20421;-76
2021/12/07 08:46:00;;;;;;;6.53;1.60;;;;;;;;;;4992354;28;20867;-74
2021/12/07 08:48:27;;;;;;;10.10;2.13;;;;;;;;;;4992260;28;20417;-74
2021/12/07 08:50:53;;;;;;;16.10;2.37;;;;;;;;;;4992619;28;20457;-74
2021/12/07 08:53:20;;;;;;;8.20;1.67;;;;;;;;;;4991202;28;20435;-76
2021/12/07 09:01:18;;;;;;;5.33;1.37;;;;;;;;;;4991006;28;20435;-76
2021/12/07 09:03:44;;;;;;;6.13;1.40;;;;;;;;;;4993111;28;20424;-76
2021/12/07 09:06:10;;;;;;;28.07;3.90;;;;;;;;;;4992444;28;20409;-74
2021/12/07 09:08:36;;;;;;;78.30;6.93;;;;;;;;;;4991308;28;20424;-74
2021/12/07 09:11:03;;;;;;;16.70;2.60;;;;;;;;;;4992322;28;20428;-74
2021/12/07 09:13:29;;;;;;;6.27;1.53;;;;;;;;;;5000972;28;20408;-74
2021/12/07 09:15:56;;;;;;;16.70;2.70;;;;;;;;;;4996802;28;20955;-76
2021/12/07 09:18:22;;;;;;;10.27;2.03;;;;;;;;;;4996432;28;20424;-76
2021/12/07 09:20:48;;;;;;;22.27;2.40;;;;;;;;;;4996159;28;20451;-77
2021/12/07 09:23:14;;;;;;;4.17;1.43;;;;;;;;;;4996220;28;20421;-77
2021/12/07 09:25:40;;;;;;;12.40;2.20;;;;;;;;;;4996212;28;20850;-76
2021/12/07 09:28:07;;;;;;;4.10;1.27;;;;;;;;;;4995600;28;20460;-77
2021/12/07 09:30:33;;;;;;;11.53;2.30;;;;;;;;;;4993426;28;20428;-76
2021/12/07 09:32:59;;;;;;;6.40;1.43;;;;;;;;;;4996100;28;20444;-77
2021/12/07 09:35:25;;;;;;;11.80;2.37;;;;;;;;;;4996073;28;20464;-76
2021/12/07 09:37:52;;;;;;;5.67;1.40;;;;;;;;;;4996341;28;20409;-76
2021/12/07 09:40:19;;;;;;;15.23;2.17;;;;;;;;;;4995923;28;20428;-77
2021/12/07 09:42:45;;;;;;;14.03;2.43;;;;;;;;;;4995291;28;20417;-76
2021/12/07 09:45:12;;;;;;;7.80;1.47;;;;;;;;;;4994713;28;20421;-74
2021/12/07 09:47:39;;;;;;;5.83;1.47;;;;;;;;;;4995505;28;20741;-74
2021/12/07 09:50:06;;;;;;;14.50;2.37;;;;;;;;;;4995858;28;20935;-74
2021/12/07 09:52:32;;;;;;;28.50;4.30;;;;;;;;;;4994689;28;20429;-74
2021/12/07 09:54:58;;;;;;;10.03;2.13;;;;;;;;;;4995213;28;20464;-75
2021/12/07 09:57:24;;;;;;;10.70;1.90;;;;;;;;;;4995524;28;20431;-77
2021/12/07 09:59:50;;;;;;;39.77;4.83;;;;;;;;;;4995038;28;20480;-76
2021/12/07 10:02:17;;;;;;;34.10;3.70;;;;;;;;;;4993606;28;20528;-76
2021/12/07 10:04:43;;;;;;;37.33;5.10;;;;;;;;;;4995160;28;20905;-76
2021/12/07 10:07:09;;;;;;;25.27;3.87;;;;;;;;;;4986696;28;20418;-76
2021/12/07 10:09:35;;;;;;;14.00;2.27;;;;;;;;;;4995019;28;20425;-76
2021/12/07 10:12:01;;;;;;;5.67;1.27;;;;;;;;;;4995778;28;20500;-76
2021/12/07 10:14:45;;;;;;;10.90;2.10;;;;;;;;;;4995635;28;21023;-76
2021/12/07 10:17:12;;;;;;;15.50;2.10;;;;;;;;;;4995324;28;20463;-76
2021/12/07 10:19:42;;;;;;;27.90;4.20;;;;;;;;;;4994071;28;20437;-76
2021/12/07 10:22:09;;;;;;;13.40;2.50;;;;;;;;;;4992202;28;20424;-76
2021/12/07 10:24:48;;;;;;;12.13;2.07;;;;;;;;;;4989396;28;20435;-76
2021/12/07 10:27:30;;;;;;;20.57;3.20;;;;;;;;;;4991594;28;20424;-76
2021/12/07 10:29:56;;;;;;;13.80;2.30;;;;;;;;;;4993898;28;20437;-75
2021/12/07 10:32:22;;;;;;;12.80;1.90;;;;;;;;;;4995090;28;20476;-76
2021/12/07 10:34:50;;;;;;;19.63;3.17;;;;;;;;;;4995101;28;20522;-77
2021/12/07 10:37:17;;;;;;;9.30;1.67;;;;;;;;;;4995245;28;20455;-78
2021/12/07 10:39:49;;;;;;;16.83;2.63;;;;;;;;;;4994529;28;21009;-77
2021/12/07 10:42:18;;;;;;;13.10;2.10;;;;;;;;;;4995064;28;20409;-76
2021/12/07 10:44:44;;;;;;;3.97;1.13;;;;;;;;;;4995114;28;20420;-75
2021/12/07 10:47:14;;;;;;;20.37;2.70;;;;;;;;;;4995009;28;20413;-74
2021/12/07 10:49:42;;;;;;;13.20;1.53;;;;;;;;;;4987105;28;20916;-74
2021/12/07 10:52:11;;;;;;;29.37;4.27;;;;;;;;;;4994858;28;20413;-74
2021/12/07 10:54:49;;;;;;;6.90;2.23;;;;;;;;;;4995091;28;20468;-74
2021/12/07 10:57:20;;;;;;;4.00;1.07;;;;;;;;;;5000525;28;20459;-74
2021/12/07 10:59:53;;;;;;;14.03;1.83;;;;;;;;;;4994039;28;20425;-74
2021/12/07 11:02:19;;;;;;;11.10;2.00;;;;;;;;;;4992357;28;20440;-74
2021/12/07 11:04:45;;;;;;;16.53;3.07;;;;;;;;;;4993355;28;20439;-73
2021/12/07 11:07:15;;;;;;;14.00;3.07;;;;;;;;;;4994387;28;20417;-73
2021/12/07 11:09:45;;;;;;;9.23;2.00;;;;;;;;;;4994266;28;20434;-74
2021/12/07 11:12:13;;;;;;;10.67;1.47;;;;;;;;;;4994706;28;20424;-74
2021/12/07 11:14:52;;;;;;;10.37;1.67;;;;;;;;;;4994188;28;20456;-73
2021/12/07 11:17:26;;;;;;;12.10;2.30;;;;;;;;;;4994664;28;20424;-77
2021/12/07 11:19:53;;;;;;;11.90;2.03;;;;;;;;;;4990228;28;20840;-76
2021/12/07 11:22:21;;;;;;;9.90;2.00;;;;;;;;;;4993225;28;20439;-75
2021/12/07 11:24:48;;;;;;;7.97;1.23;;;;;;;;;;4993245;28;20478;-77
2021/12/07 11:30:07;;;;;;;5.03;1.23;;;;;;;;;;4993981;28;20456;-76
2021/12/07 11:32:33;;;;;;;9.13;2.00;;;;;;;;;;4993236;28;20608;-73
2021/12/07 11:35:13;;;;;;;6.43;1.37;;;;;;;;;;4980650;28;20954;-73
2021/12/07 11:37:39;;;;;;;9.53;1.83;;;;;;;;;;4993680;28;20424;-72
2021/12/07 11:40:07;;;;;;;46.97;4.67;;;;;;;;;;4993660;28;20478;-73
2021/12/07 11:42:37;;;;;;;11.23;1.93;;;;;;;;;;4993701;28;20961;-73
2021/12/07 11:45:09;;;;;;;9.60;1.53;;;;;;;;;;4994040;28;20416;-72
2021/12/07 11:47:40;;;;;;;9.87;2.13;;;;;;;;;;4994001;28;20409;-73
2021/12/07 11:50:24;;;;;;;14.27;2.30;;;;;;;;;;4993598;28;20421;-73
2021/12/07 11:52:52;;;;;;;12.27;2.40;;;;;;;;;;4993280;28;20413;-73
2021/12/07 11:55:19;;;;;;;7.40;1.50;;;;;;;;;;4999744;28;20474;-73
2021/12/07 11:57:46;;;;;;;11.80;2.20;;;;;;;;;;4993859;28;20500;-74
2021/12/07 12:00:14;;;;;;;7.13;1.80;;;;;;;;;;4993288;28;20507;-73
2021/12/07 12:02:40;;;;;;;10.73;2.43;;;;;;;;;;4981944;28;20401;-76
2021/12/07 12:05:07;;;;;;;4.00;1.10;;;;;;;;;;4992643;28;20467;-75
2021/12/07 12:07:33;;;;;;;11.23;2.47;;;;;;;;;;4993303;28;20420;-75
2021/12/07 12:09:59;;;;;;;10.70;1.83;;;;;;;;;;4993391;28;20437;-75
2021/12/07 12:12:32;;;;;;;8.63;1.97;;;;;;;;;;4993627;28;20507;-75
2021/12/07 12:15:11;;;;;;;17.70;2.60;;;;;;;;;;4993519;28;20456;-75
2021/12/07 12:17:41;;;;;;;16.23;2.63;;;;;;;;;;4990818;28;20482;-73
2021/12/07 12:20:13;;;;;;;11.93;1.80;;;;;;;;;;4983243;28;20781;-73
2021/12/07 12:22:57;;;;;;;43.27;4.50;;;;;;;;;;4993052;28;20822;-73
2021/12/07 12:25:25;;;;;;;13.13;1.70;;;;;;;;;;4993196;28;20431;-73
2021/12/07 12:27:52;;;;;;;2.80;0.90;;;;;;;;;;4993255;28;20463;-73
2021/12/07 12:30:21;;;;;;;9.63;1.87;;;;;;;;;;4992720;28;20516;-73
2021/12/07 12:32:53;;;;;;;8.23;1.83;;;;;;;;;;4981551;28;20428;-76
2021/12/07 12:35:26;;;;;;;44.37;5.10;;;;;;;;;;4993062;28;20464;-76
2021/12/07 12:37:52;;;;;;;22.77;2.03;;;;;;;;;;4993109;28;20421;-76
2021/12/07 12:40:26;;;;;;;11.63;2.27;;;;;;;;;;4993217;28;20462;-76
2021/12/07 12:42:54;;;;;;;11.87;1.63;;;;;;;;;;4992872;28;20420;-76
2021/12/07 12:45:26;;;;;;;8.90;1.87;;;;;;;;;;4993950;28;20478;-77
2021/12/07 12:48:04;;;;;;;18.50;3.30;;;;;;;;;;4997288;28;20439;-73
2021/12/07 12:50:33;;;;;;;11.30;2.00;;;;;;;;;;4996723;28;20432;-73
2021/12/07 12:53:01;;;;;;;12.07;2.10;;;;;;;;;;4996721;28;20516;-73
2021/12/07 12:55:28;;;;;;;7.07;1.50;;;;;;;;;;4998088;28;20472;-73
2021/12/07 12:57:54;;;;;;;5.60;1.10;;;;;;;;;;4997191;28;20419;-73
2021/12/07 13:00:21;;;;;;;8.40;1.70;;;;;;;;;;4996582;28;20420;-73
2021/12/07 13:02:54;;;;;;;12.53;2.00;;;;;;;;;;4996530;28;20443;-75
2021/12/07 13:05:34;;;;;;;15.47;2.50;;;;;;;;;;4996892;28;20421;-76
2021/12/07 13:08:14;;;;;;;10.73;1.87;;;;;;;;;;4996906;28;20416;-76
2021/12/07 13:10:56;;;;;;;13.73;1.53;;;;;;;;;;4996924;28;20472;-75
2021/12/07 13:13:32;;;;;;;10.37;2.27;;;;;;;;;;4996758;28;20425;-77
2021/12/07 13:15:58;;;;;;;18.33;2.70;;;;;;;;;;4996521;28;20464;-76
2021/12/07 13:18:31;;;;;;;6.53;1.20;;;;;;;;;;4995929;28;20790;-76
2021/12/07 13:20:57;;;;;;;6.03;1.40;;;;;;;;;;4996387;28;20456;-77
2021/12/07 13:23:31;;;;;;;7.93;1.83;;;;;;;;;;4996886;28;20408;-76
2021/12/07 13:25:57;;;;;;;6.77;1.50;;;;;;;;;;4996146;28;20460;-77
2021/12/07 13:28:30;;;;;;;7.20;1.50;;;;;;;;;;4996607;28;20422;-77
2021/12/07 13:31:12;;;;;;;8.53;1.63;;;;;;;;;;4996183;28;20976;-77
2021/12/07 13:33:38;;;;;;;21.33;3.47;;;;;;;;;;4996079;28;20444;-72
2021/12/07 13:36:29;;;;;;;10.13;1.23;;;7.80;1.00;;;;;;4994179;28;20792;-72
2021/12/07 13:38:58;;;;;;;18.47;3.13;;;;;;;;;;4994023;28;20421;-72
2021/12/07 13:41:24;;;;;;;3.00;0.87;;;;;;;;;;4996212;28;20924;-73
2021/12/07 13:43:52;;;;;;;20.13;3.00;;;;;;;;;;4996038;28;20440;-73
2021/12/07 13:46:19;;;;;;;9.43;2.00;;;;;;;;;;4996121;28;20413;-73
2021/12/07 13:48:48;;;;;;;23.67;3.57;;;;;;;;;;4995476;28;20428;-73
2021/12/07 13:51:16;;;;;;;5.60;1.77;;;;;;;;;;4995985;28;20427;-73
2021/12/07 13:53:43;;;;;;;8.63;1.63;;;;;;;;;;4994913;28;20421;-73
2021/12/07 13:56:10;;;;;;;3.80;1.20;;;;;;;;;;4995952;28;20506;-73
2021/12/07 13:58:54;;;;;;;4.73;1.30;;;;;;;;;;4995276;28;20424;-74
2021/12/07 14:01:21;;;;;;;12.23;2.43;;;;;;;;;;4995312;28;20421;-74
2021/12/07 14:03:47;;;;;;;10.07;1.73;;;;;;;;;;4996068;28;20433;-73
2021/12/07 14:06:13;;;;;;;12.80;2.33;;;;;;;;;;4995635;28;20632;-73
2021/12/07 14:08:39;;;;;;;4.73;1.23;;;;;;;;;;4995904;28;20516;-73
2021/12/07 14:11:06;;;;;;;10.47;2.17;;;;;;;;;;4995047;28;20432;-74
2021/12/07 14:13:33;;;;;;;15.27;2.60;;;;;;;;;;4988555;28;20420;-75
2021/12/07 14:15:59;;;;;;;13.13;2.10;;;;;;;;;;4991630;28;20459;-75
2021/12/07 14:18:26;;;;;;;10.13;1.80;;;;;;;;;;4995405;28;20511;-73
2021/12/07 14:20:54;;;;;;;7.97;1.73;;;;;;;;;;4995243;28;20487;-73
2021/12/07 14:23:20;;;;;;;11.60;2.40;;;;;;;;;;4995225;28;20420;-75
2021/12/07 14:25:47;;;;;;;13.70;2.27;;;;;;;;;;4995164;28;20911;-74
2021/12/07 14:28:22;;;;;;;7.63;1.80;;;;;;;;;;4994377;28;20432;-73
2021/12/07 14:30:48;;;;;;;22.80;3.77;;;;;;;;;;4991878;28;20467;-73
2021/12/07 14:33:14;;;;;;;16.37;2.50;;;;;;;;;;4995707;28;20436;-77
2021/12/07 14:35:42;;;;;;;13.40;2.43;;;;;;;;;;4992252;28;20489;-78
2021/12/07 14:38:08;;;;;;;7.40;1.57;;;;;;;;;;4985819;28;20420;-77
2021/12/07 14:40:34;;;;;;;6.63;1.47;;;;;;;;;;4993618;28;20425;-77
2021/12/07 14:43:01;;;;;;;30.27;4.10;;;;;;;;;;4996253;28;20920;-77
2021/12/07 14:45:27;;;;;;;7.50;1.50;;;;;;;;;;4994334;28;20447;-77
2021/12/07 14:47:53;;;;;;;33.93;5.30;;;;;;;;;;4994096;28;20424;-76
2021/12/07 14:50:19;;;;;;;9.03;2.03;;;;;;;;;;4991815;28;20440;-73
2021/12/07 14:52:45;;;;;;;42.00;5.63;;;;;;;;;;4994012;28;20818;-73
2021/12/07 14:55:11;;;;;;;9.63;1.37;;;;;;;;;;4996781;28;20468;-74
2021/12/07 14:57:40;;;;;;;15.13;1.80;;;;;;;;;;4993775;28;20930;-74
2021/12/07 15:00:07;;;;;;;5.63;1.20;;;;;;;;;;4993586;28;20427;-74
2021/12/07 15:02:35;;;;;;;16.63;2.70;;;;;;;;;;4994322;28;20425;-74
2021/12/07 15:05:04;;;;;;;9.90;1.90;;;;;;;;;;4994796;28;20892;-74
2021/12/07 15:07:33;;;;;;;6.00;1.50;;;;;;;;;;4993197;28;20428;-74
2021/12/07 15:10:05;;;;;;;34.13;5.20;;;;;;;;;;4975953;28;20441;-73
2021/12/07 15:12:35;;;;;;;5.30;1.67;;;;;;;;;;4980754;28;20424;-73
2021/12/07 15:15:02;;;;;;;6.60;1.73;;;;;;;;;;4991929;28;20503;-73
2021/12/07 15:17:30;;;;;;;30.20;3.77;;;;;;;;;;4991200;28;20430;-73
2021/12/07 15:20:25;;;;;;;14.83;2.50;;;5.30;1.00;;;;;;4993970;28;20516;-78
2021/12/07 15:23:08;;;;;;;8.67;1.73;;;;;;;;;;4995113;28;20409;-77
2021/12/07 15:25:34;;;;;;;22.83;1.60;;;;;;;;;;4994568;28;20900;-78
2021/12/07 15:28:19;;;;;;;6.13;1.50;;;;;;;;;;4991973;28;20400;-78
2021/12/07 15:31:06;;;;;;;5.70;0.90;;;;;;;;;;5111296;27;20553;-76
2021/12/07 15:33:34;;;;;;;6.57;1.83;;;;;;;;;;5110595;28;20462;-75
2021/12/07 15:36:15;;;;;;;4.27;1.27;;;4.40;1.00;;;;;;5095560;28;20761;-76
2021/12/07 15:38:41;;;;;;;5.13;1.30;;;;;;;;;;5094111;28;20417;-76
2021/12/07 15:41:14;;;;;;;24.23;1.58;;;4.10;1.00;;;;;;5109906;28;20632;-76
2021/12/07 15:43:45;;;;;;;3.33;1.67;;;;;;;;;;5099292;28;20220;-76
2021/12/07 15:46:17;;;;;;;3.97;1.10;;;3.90;1.00;;;;;;5102662;28;20699;-76
2021/12/07 15:48:44;;;;;;;4.20;1.13;;;3.80;1.00;;;;;;5107048;28;20243;-75
2021/12/07 15:51:11;;;;;;;4.70;1.40;;;;;;;;;;5102704;28;20457;-76
2021/12/07 15:53:38;;;;;;;11.77;2.22;;;;;;;;;;5091773;28;20249;-76
2021/12/07 15:56:04;;;;;;;6.20;1.35;;;;;;;;;;5089225;28;20228;-77
2021/12/07 15:58:30;;;;;;;29.08;3.35;;;;;;;;;;5095075;28;20167;-78
2021/12/07 16:01:00;;;;;;;9.77;1.80;;;3.70;1.00;;;;;;5094865;28;20171;-76
2021/12/07 16:03:45;;;;;;;17.20;2.38;;;3.60;1.00;;;;;;5097330;28;20629;-76
2021/12/07 16:06:23;;;;;;;46.15;5.07;;;3.60;1.00;;;;;;5091946;28;20197;-76
2021/12/07 16:09:08;;;;;;;6.80;1.90;;;;;;;;;;5093396;28;20174;-76
2021/12/07 16:11:34;;;;;;;6.35;1.30;;;;;;;;;;5092714;28;20190;-76
2021/12/07 16:14:02;;;;;;;11.43;2.05;;;;;;;;;;5094298;28;20584;-77
2021/12/07 16:16:30;;;;;;;9.35;1.85;;;;;;;;;;5092538;28;20189;-76
2021/12/07 16:18:57;;;;;;;11.43;1.83;;;3.70;1.00;;;;;;5104474;28;20181;-76
2021/12/07 16:21:24;;;;;;;3.00;1.20;;;;;;;;;;5092494;28;20536;-76
2021/12/07 16:23:52;;;;;;;7.95;1.48;;;;;;;;;;5099759;28;20695;-76
2021/12/07 16:26:21;;;;;;;3.27;1.13;;;;;;;;;;5092133;28;20210;-76
2021/12/07 16:28:57;;;;;;;3.80;1.25;;;;;;;;;;5090714;28;20413;-76